sensor_id;sensor_type;location;lat;lon;timestamp;temperature;humidity
9925;DHT22;5001;51.674;7.868;2022-12-07T00:03:48;4.60;99.90
9925;DHT22;5001;51.674;7.868;2022-12-07T00:06:16;4.60;99.90
9925;DHT22;5001;51.674;7.868;2022-12-07T00:08:44;4.60;99.90
9925;DHT22;5001;51.674;7.868;2022-12-07T00:11:14;4.60;99.90
9925;DHT22;5001;51.674;7.868;2022-12-07T00:13:42;4.60;99.90
9925;DHT22;5001;51.674;7.868;2022-12-07T00:16:12;4.60;99.90
9925;DHT22;5001;51.674;7.868;2022-12-07T00:18:40;4.60;99.90
9925;DHT22;5001;51.674;7.868;2022-12-07T00:23:37;4.60;99.90
9925;DHT22;5001;51.674;7.868;2022-12-07T00:26:10;4.60;99.90
9925;DHT22;5001;51.674;7.868;2022-12-07T00:28:38;4.60;99.90
9925;DHT22;5001;51.674;7.868;2022-12-07T00:31:10;4.60;99.90
9925;DHT22;5001;51.674;7.868;2022-12-07T00:33:38;4.60;99.90
9925;DHT22;5001;51.674;7.868;2022-12-07T00:36:08;4.60;99.90
9925;DHT22;5001;51.674;7.868;2022-12-07T00:38:37;4.60;99.90
9925;DHT22;5001;51.674;7.868;2022-12-07T00:41:16;4.60;99.90
9925;DHT22;5001;51.674;7.868;2022-12-07T00:43:45;4.60;99.90
9925;DHT22;5001;51.674;7.868;2022-12-07T00:46:13;4.60;99.90
9925;DHT22;5001;51.674;7.868;2022-12-07T00:48:41;4.60;99.90
9925;DHT22;5001;51.674;7.868;2022-12-07T00:51:09;4.60;99.90
9925;DHT22;5001;51.674;7.868;2022-12-07T00:53:37;4.70;27.40
9925;DHT22;5001;51.674;7.868;2022-12-07T00:56:09;4.70;1.00
9925;DHT22;5001;51.674;7.868;2022-12-07T00:58:37;4.70;1.00
9925;DHT22;5001;51.674;7.868;2022-12-07T01:01:06;4.70;1.00
9925;DHT22;5001;51.674;7.868;2022-12-07T01:03:34;4.70;1.00
9925;DHT22;5001;51.674;7.868;2022-12-07T01:06:03;4.70;1.00
9925;DHT22;5001;51.674;7.868;2022-12-07T01:08:30;4.70;1.00
9925;DHT22;5001;51.674;7.868;2022-12-07T01:11:06;4.70;1.00
9925;DHT22;5001;51.674;7.868;2022-12-07T01:13:34;4.70;1.00
9925;DHT22;5001;51.674;7.868;2022-12-07T01:16:04;4.70;1.00
9925;DHT22;5001;51.674;7.868;2022-12-07T01:18:33;4.70;1.00
9925;DHT22;5001;51.674;7.868;2022-12-07T01:23:33;4.80;1.00
9925;DHT22;5001;51.674;7.868;2022-12-07T01:26:03;4.70;1.00
9925;DHT22;5001;51.674;7.868;2022-12-07T01:28:30;4.70;1.00
9925;DHT22;5001;51.674;7.868;2022-12-07T01:31:03;4.70;1.00
9925;DHT22;5001;51.674;7.868;2022-12-07T01:33:33;4.70;1.00
9925;DHT22;5001;51.674;7.868;2022-12-07T01:38:49;4.70;1.00
9925;DHT22;5001;51.674;7.868;2022-12-07T01:41:20;4.70;1.00
9925;DHT22;5001;51.674;7.868;2022-12-07T01:46:55;4.70;1.00
9925;DHT22;5001;51.674;7.868;2022-12-07T01:54:51;4.70;1.00
9925;DHT22;5001;51.674;7.868;2022-12-07T01:57:19;4.70;1.00
9925;DHT22;5001;51.674;7.868;2022-12-07T01:59:49;4.70;1.00
9925;DHT22;5001;51.674;7.868;2022-12-07T02:02:25;4.70;1.00
9925;DHT22;5001;51.674;7.868;2022-12-07T02:04:54;4.70;1.00
9925;DHT22;5001;51.674;7.868;2022-12-07T02:07:23;4.70;1.00
9925;DHT22;5001;51.674;7.868;2022-12-07T02:09:50;4.70;1.00
9925;DHT22;5001;51.674;7.868;2022-12-07T02:12:17;4.70;1.00
9925;DHT22;5001;51.674;7.868;2022-12-07T02:14:45;4.80;1.00
9925;DHT22;5001;51.674;7.868;2022-12-07T02:20:07;4.80;1.00
9925;DHT22;5001;51.674;7.868;2022-12-07T02:30:47;4.70;1.00
9925;DHT22;5001;51.674;7.868;2022-12-07T02:33:59;4.70;99.90
9925;DHT22;5001;51.674;7.868;2022-12-07T02:36:34;4.70;99.90
9925;DHT22;5001;51.674;7.868;2022-12-07T02:39:15;4.70;99.90
9925;DHT22;5001;51.674;7.868;2022-12-07T02:41:48;4.70;99.90
9925;DHT22;5001;51.674;7.868;2022-12-07T02:44:19;4.70;99.90
9925;DHT22;5001;51.674;7.868;2022-12-07T02:46:56;4.70;99.90
9925;DHT22;5001;51.674;7.868;2022-12-07T02:49:27;4.70;99.90
9925;DHT22;5001;51.674;7.868;2022-12-07T02:51:54;4.60;99.90
9925;DHT22;5001;51.674;7.868;2022-12-07T02:54:22;4.60;99.90
9925;DHT22;5001;51.674;7.868;2022-12-07T03:00:11;4.50;99.90
9925;DHT22;5001;51.674;7.868;2022-12-07T03:02:53;4.40;99.90
9925;DHT22;5001;51.674;7.868;2022-12-07T03:10:43;4.10;99.90
9925;DHT22;5001;51.674;7.868;2022-12-07T03:16:35;3.90;1.00
9925;DHT22;5001;51.674;7.868;2022-12-07T03:19:26;3.90;1.00
9925;DHT22;5001;51.674;7.868;2022-12-07T03:21:57;3.90;1.00
9925;DHT22;5001;51.674;7.868;2022-12-07T03:24:28;3.80;1.00
9925;DHT22;5001;51.674;7.868;2022-12-07T03:27:01;3.70;1.00
9925;DHT22;5001;51.674;7.868;2022-12-07T03:29:54;3.60;1.00
9925;DHT22;5001;51.674;7.868;2022-12-07T03:32:27;3.60;1.00
9925;DHT22;5001;51.674;7.868;2022-12-07T03:35:15;3.50;1.00
9925;DHT22;5001;51.674;7.868;2022-12-07T03:41:03;3.50;99.90
9925;DHT22;5001;51.674;7.868;2022-12-07T03:43:31;3.50;99.90
9925;DHT22;5001;51.674;7.868;2022-12-07T03:49:04;3.30;99.90
9925;DHT22;5001;51.674;7.868;2022-12-07T03:51:59;3.20;99.90
9925;DHT22;5001;51.674;7.868;2022-12-07T03:54:48;3.20;99.90
9925;DHT22;5001;51.674;7.868;2022-12-07T03:57:18;3.10;99.90
9925;DHT22;5001;51.674;7.868;2022-12-07T03:59:46;3.10;99.90
9925;DHT22;5001;51.674;7.868;2022-12-07T04:02:13;3.10;1.00
9925;DHT22;5001;51.674;7.868;2022-12-07T04:04:41;3.10;1.00
9925;DHT22;5001;51.674;7.868;2022-12-07T04:07:09;3.20;1.00
9925;DHT22;5001;51.674;7.868;2022-12-07T04:09:36;3.30;1.00
9925;DHT22;5001;51.674;7.868;2022-12-07T04:12:03;3.30;1.00
9925;DHT22;5001;51.674;7.868;2022-12-07T04:14:30;3.20;1.00
9925;DHT22;5001;51.674;7.868;2022-12-07T04:16:58;3.10;1.00
9925;DHT22;5001;51.674;7.868;2022-12-07T04:19:28;3.10;1.00
9925;DHT22;5001;51.674;7.868;2022-12-07T04:21:56;3.10;1.00
9925;DHT22;5001;51.674;7.868;2022-12-07T04:24:23;3.00;1.00
9925;DHT22;5001;51.674;7.868;2022-12-07T04:26:51;3.00;1.00
9925;DHT22;5001;51.674;7.868;2022-12-07T04:29:19;3.00;1.00
9925;DHT22;5001;51.674;7.868;2022-12-07T04:31:46;3.00;1.00
9925;DHT22;5001;51.674;7.868;2022-12-07T04:34:14;2.90;1.00
9925;DHT22;5001;51.674;7.868;2022-12-07T04:36:42;2.90;10.10
9925;DHT22;5001;51.674;7.868;2022-12-07T04:39:32;2.90;49.00
9925;DHT22;5001;51.674;7.868;2022-12-07T04:42:00;2.80;35.70
9925;DHT22;5001;51.674;7.868;2022-12-07T04:44:29;2.80;96.20
9925;DHT22;5001;51.674;7.868;2022-12-07T04:46:56;2.80;99.90
9925;DHT22;5001;51.674;7.868;2022-12-07T04:49:24;2.70;99.90
9925;DHT22;5001;51.674;7.868;2022-12-07T04:51:52;2.70;99.90
9925;DHT22;5001;51.674;7.868;2022-12-07T04:54:19;2.70;99.90
9925;DHT22;5001;51.674;7.868;2022-12-07T04:56:46;2.70;99.90
9925;DHT22;5001;51.674;7.868;2022-12-07T04:59:15;2.70;99.90
9925;DHT22;5001;51.674;7.868;2022-12-07T05:01:43;2.70;99.90
9925;DHT22;5001;51.674;7.868;2022-12-07T05:04:10;2.70;99.90
9925;DHT22;5001;51.674;7.868;2022-12-07T05:06:37;2.70;99.90
9925;DHT22;5001;51.674;7.868;2022-12-07T05:09:04;2.70;99.90
9925;DHT22;5001;51.674;7.868;2022-12-07T05:11:32;2.50;99.90
9925;DHT22;5001;51.674;7.868;2022-12-07T05:14:22;2.50;99.90
9925;DHT22;5001;51.674;7.868;2022-12-07T05:16:50;2.50;99.90
9925;DHT22;5001;51.674;7.868;2022-12-07T05:19:19;2.60;1.00
9925;DHT22;5001;51.674;7.868;2022-12-07T05:21:46;2.70;1.00
9925;DHT22;5001;51.674;7.868;2022-12-07T05:24:14;2.70;1.00
9925;DHT22;5001;51.674;7.868;2022-12-07T05:26:42;2.70;1.00
9925;DHT22;5001;51.674;7.868;2022-12-07T05:29:12;2.70;1.00
9925;DHT22;5001;51.674;7.868;2022-12-07T05:31:39;2.70;1.00
9925;DHT22;5001;51.674;7.868;2022-12-07T05:34:07;2.80;1.00
9925;DHT22;5001;51.674;7.868;2022-12-07T05:36:34;2.90;1.00
9925;DHT22;5001;51.674;7.868;2022-12-07T05:39:01;2.90;1.00
9925;DHT22;5001;51.674;7.868;2022-12-07T05:41:28;3.00;1.00
9925;DHT22;5001;51.674;7.868;2022-12-07T05:44:13;2.90;1.00
9925;DHT22;5001;51.674;7.868;2022-12-07T05:46:40;2.90;10.70
9925;DHT22;5001;51.674;7.868;2022-12-07T05:49:07;3.00;50.50
9925;DHT22;5001;51.674;7.868;2022-12-07T05:51:34;3.00;78.60
9925;DHT22;5001;51.674;7.868;2022-12-07T05:54:01;3.00;94.30
9925;DHT22;5001;51.674;7.868;2022-12-07T05:56:28;3.00;99.90
9925;DHT22;5001;51.674;7.868;2022-12-07T05:58:55;3.00;93.70
9925;DHT22;5001;51.674;7.868;2022-12-07T06:01:41;2.90;89.20
9925;DHT22;5001;51.674;7.868;2022-12-07T06:04:08;3.00;99.90
9925;DHT22;5001;51.674;7.868;2022-12-07T06:06:35;3.00;99.90
9925;DHT22;5001;51.674;7.868;2022-12-07T06:09:02;3.00;99.90
9925;DHT22;5001;51.674;7.868;2022-12-07T06:11:29;3.10;99.90
9925;DHT22;5001;51.674;7.868;2022-12-07T06:14:15;3.10;99.90
9925;DHT22;5001;51.674;7.868;2022-12-07T06:16:42;3.10;99.40
9925;DHT22;5001;51.674;7.868;2022-12-07T06:19:09;3.10;92.80
9925;DHT22;5001;51.674;7.868;2022-12-07T06:21:36;3.10;64.60
9925;DHT22;5001;51.674;7.868;2022-12-07T06:24:04;3.10;38.50
9925;DHT22;5001;51.674;7.868;2022-12-07T06:26:31;3.20;12.40
9925;DHT22;5001;51.674;7.868;2022-12-07T06:28:58;3.20;1.00
9925;DHT22;5001;51.674;7.868;2022-12-07T06:31:25;3.20;1.00
9925;DHT22;5001;51.674;7.868;2022-12-07T06:34:00;3.20;1.00
9925;DHT22;5001;51.674;7.868;2022-12-07T06:36:28;3.20;1.00
9925;DHT22;5001;51.674;7.868;2022-12-07T06:38:55;3.30;1.00
9925;DHT22;5001;51.674;7.868;2022-12-07T06:41:22;3.30;1.00
9925;DHT22;5001;51.674;7.868;2022-12-07T06:43:50;3.30;1.00
9925;DHT22;5001;51.674;7.868;2022-12-07T06:46:22;3.20;99.90
9925;DHT22;5001;51.674;7.868;2022-12-07T06:48:50;3.20;99.90
9925;DHT22;5001;51.674;7.868;2022-12-07T06:51:17;3.20;99.90
9925;DHT22;5001;51.674;7.868;2022-12-07T06:53:44;3.10;85.70
9925;DHT22;5001;51.674;7.868;2022-12-07T06:56:11;3.10;1.00
9925;DHT22;5001;51.674;7.868;2022-12-07T06:58:39;3.20;1.00
9925;DHT22;5001;51.674;7.868;2022-12-07T07:01:14;3.20;1.00
9925;DHT22;5001;51.674;7.868;2022-12-07T07:03:42;3.30;1.00
9925;DHT22;5001;51.674;7.868;2022-12-07T07:06:10;3.20;1.00
9925;DHT22;5001;51.674;7.868;2022-12-07T07:08:38;3.10;1.00
9925;DHT22;5001;51.674;7.868;2022-12-07T07:11:06;2.90;99.90
9925;DHT22;5001;51.674;7.868;2022-12-07T07:13:34;2.80;99.90
9925;DHT22;5001;51.674;7.868;2022-12-07T07:16:01;2.80;1.00
9925;DHT22;5001;51.674;7.868;2022-12-07T07:18:28;2.80;1.00
9925;DHT22;5001;51.674;7.868;2022-12-07T07:20:55;2.90;1.00
9925;DHT22;5001;51.674;7.868;2022-12-07T07:23:22;2.90;1.00
9925;DHT22;5001;51.674;7.868;2022-12-07T07:25:50;2.90;1.00
9925;DHT22;5001;51.674;7.868;2022-12-07T07:28:17;2.90;1.00
9925;DHT22;5001;51.674;7.868;2022-12-07T07:30:44;2.90;1.00
9925;DHT22;5001;51.674;7.868;2022-12-07T07:33:12;2.90;1.00
9925;DHT22;5001;51.674;7.868;2022-12-07T07:35:39;2.90;1.00
9925;DHT22;5001;51.674;7.868;2022-12-07T07:38:07;2.90;1.00
9925;DHT22;5001;51.674;7.868;2022-12-07T07:40:34;3.00;1.00
9925;DHT22;5001;51.674;7.868;2022-12-07T07:43:01;2.90;1.00
9925;DHT22;5001;51.674;7.868;2022-12-07T07:45:28;2.90;1.00
9925;DHT22;5001;51.674;7.868;2022-12-07T07:47:55;2.80;1.00
9925;DHT22;5001;51.674;7.868;2022-12-07T07:50:22;2.80;1.00
9925;DHT22;5001;51.674;7.868;2022-12-07T07:52:50;2.80;1.00
9925;DHT22;5001;51.674;7.868;2022-12-07T07:55:20;2.70;1.00
9925;DHT22;5001;51.674;7.868;2022-12-07T07:57:48;2.70;1.00
9925;DHT22;5001;51.674;7.868;2022-12-07T08:00:21;2.80;1.00
9925;DHT22;5001;51.674;7.868;2022-12-07T08:02:48;2.80;1.00
9925;DHT22;5001;51.674;7.868;2022-12-07T08:05:15;2.90;1.00
9925;DHT22;5001;51.674;7.868;2022-12-07T08:07:42;2.80;1.00
9925;DHT22;5001;51.674;7.868;2022-12-07T08:10:11;2.80;1.00
9925;DHT22;5001;51.674;7.868;2022-12-07T08:12:41;2.80;99.90
9925;DHT22;5001;51.674;7.868;2022-12-07T08:15:29;2.80;99.90
9925;DHT22;5001;51.674;7.868;2022-12-07T08:17:57;2.90;1.00
9925;DHT22;5001;51.674;7.868;2022-12-07T08:20:24;3.10;1.00
9925;DHT22;5001;51.674;7.868;2022-12-07T08:22:51;3.10;99.90
9925;DHT22;5001;51.674;7.868;2022-12-07T08:25:18;3.20;99.90
9925;DHT22;5001;51.674;7.868;2022-12-07T08:27:46;3.50;99.90
9925;DHT22;5001;51.674;7.868;2022-12-07T08:30:13;3.70;1.00
9925;DHT22;5001;51.674;7.868;2022-12-07T08:32:40;3.80;1.00
9925;DHT22;5001;51.674;7.868;2022-12-07T08:35:07;3.90;99.90
9925;DHT22;5001;51.674;7.868;2022-12-07T08:37:35;4.10;1.00
9925;DHT22;5001;51.674;7.868;2022-12-07T08:40:04;4.20;1.00
9925;DHT22;5001;51.674;7.868;2022-12-07T08:42:31;4.40;1.00
9925;DHT22;5001;51.674;7.868;2022-12-07T08:45:09;4.60;1.00
9925;DHT22;5001;51.674;7.868;2022-12-07T08:47:40;4.70;99.90
9925;DHT22;5001;51.674;7.868;2022-12-07T08:50:10;5.10;99.90
9925;DHT22;5001;51.674;7.868;2022-12-07T08:52:38;5.20;99.90
9925;DHT22;5001;51.674;7.868;2022-12-07T08:55:06;5.20;99.90
9925;DHT22;5001;51.674;7.868;2022-12-07T08:57:34;5.10;99.90
9925;DHT22;5001;51.674;7.868;2022-12-07T09:00:03;4.90;99.90
9925;DHT22;5001;51.674;7.868;2022-12-07T09:02:31;4.80;99.90
9925;DHT22;5001;51.674;7.868;2022-12-07T09:04:58;4.50;93.70
9925;DHT22;5001;51.674;7.868;2022-12-07T09:07:26;4.30;91.10
9925;DHT22;5001;51.674;7.868;2022-12-07T09:09:53;4.30;99.90
9925;DHT22;5001;51.674;7.868;2022-12-07T09:12:20;4.40;99.40
9925;DHT22;5001;51.674;7.868;2022-12-07T09:14:47;4.40;91.20
9925;DHT22;5001;51.674;7.868;2022-12-07T09:17:14;6.60;10.40
9925;DHT22;5001;51.674;7.868;2022-12-07T09:19:41;10.50;1.00
9925;DHT22;5001;51.674;7.868;2022-12-07T09:22:09;12.40;1.00
9925;DHT22;5001;51.674;7.868;2022-12-07T09:24:36;14.00;1.00
9925;DHT22;5001;51.674;7.868;2022-12-07T09:27:03;15.10;1.00
9925;DHT22;5001;51.674;7.868;2022-12-07T09:29:30;15.60;1.00
9925;DHT22;5001;51.674;7.868;2022-12-07T09:31:57;16.20;1.00
9925;DHT22;5001;51.674;7.868;2022-12-07T09:34:24;17.10;1.00
9925;DHT22;5001;51.674;7.868;2022-12-07T09:36:53;17.50;1.00
9925;DHT22;5001;51.674;7.868;2022-12-07T09:39:20;18.90;1.00
9925;DHT22;5001;51.674;7.868;2022-12-07T09:41:47;18.10;1.00
9925;DHT22;5001;51.674;7.868;2022-12-07T09:44:25;17.90;1.00
9925;DHT22;5001;51.674;7.868;2022-12-07T09:46:52;19.50;1.00
9925;DHT22;5001;51.674;7.868;2022-12-07T09:49:22;20.00;1.00
9925;DHT22;5001;51.674;7.868;2022-12-07T09:52:26;19.90;1.00
9925;DHT22;5001;51.674;7.868;2022-12-07T09:54:56;19.40;1.00
9925;DHT22;5001;51.674;7.868;2022-12-07T09:57:32;16.90;1.00
9925;DHT22;5001;51.674;7.868;2022-12-07T10:00:06;13.90;1.00
9925;DHT22;5001;51.674;7.868;2022-12-07T10:02:44;11.40;1.00
9925;DHT22;5001;51.674;7.868;2022-12-07T10:05:16;10.10;1.00
9925;DHT22;5001;51.674;7.868;2022-12-07T10:07:50;9.20;1.00
9925;DHT22;5001;51.674;7.868;2022-12-07T10:10:30;8.40;1.00
9925;DHT22;5001;51.674;7.868;2022-12-07T10:13:16;7.80;1.00
9925;DHT22;5001;51.674;7.868;2022-12-07T10:18:37;7.20;1.00
9925;DHT22;5001;51.674;7.868;2022-12-07T10:21:11;7.20;1.00
9925;DHT22;5001;51.674;7.868;2022-12-07T10:28:58;7.10;1.00
9925;DHT22;5001;51.674;7.868;2022-12-07T10:31:26;7.10;1.00
9925;DHT22;5001;51.674;7.868;2022-12-07T10:34:00;7.20;1.00
9925;DHT22;5001;51.674;7.868;2022-12-07T10:36:37;7.20;1.00
9925;DHT22;5001;51.674;7.868;2022-12-07T10:39:13;7.30;1.00
9925;DHT22;5001;51.674;7.868;2022-12-07T10:41:58;7.50;1.00
9925;DHT22;5001;51.674;7.868;2022-12-07T10:44:28;9.40;1.00
9925;DHT22;5001;51.674;7.868;2022-12-07T11:01:25;9.30;1.00
9925;DHT22;5001;51.674;7.868;2022-12-07T11:04:15;8.90;1.00
9925;DHT22;5001;51.674;7.868;2022-12-07T11:20:43;13.40;1.00
9925;DHT22;5001;51.674;7.868;2022-12-07T11:26:34;11.40;1.00
9925;DHT22;5001;51.674;7.868;2022-12-07T11:34:38;8.90;1.00
9925;DHT22;5001;51.674;7.868;2022-12-07T11:37:12;8.50;1.00
9925;DHT22;5001;51.674;7.868;2022-12-07T11:39:56;7.90;1.00
9925;DHT22;5001;51.674;7.868;2022-12-07T11:42:29;7.70;1.00
9925;DHT22;5001;51.674;7.868;2022-12-07T11:45:03;7.40;1.00
9925;DHT22;5001;51.674;7.868;2022-12-07T11:47:47;7.30;1.00
9925;DHT22;5001;51.674;7.868;2022-12-07T11:53:10;7.30;1.00
9925;DHT22;5001;51.674;7.868;2022-12-07T12:06:40;7.20;1.00
9925;DHT22;5001;51.674;7.868;2022-12-07T12:09:31;6.90;1.00
9925;DHT22;5001;51.674;7.868;2022-12-07T12:20:41;6.80;1.00
9925;DHT22;5001;51.674;7.868;2022-12-07T12:23:51;6.80;1.00
9925;DHT22;5001;51.674;7.868;2022-12-07T12:26:26;7.10;1.00
9925;DHT22;5001;51.674;7.868;2022-12-07T12:29:21;7.20;1.00
9925;DHT22;5001;51.674;7.868;2022-12-07T12:34:40;7.70;1.00
9925;DHT22;5001;51.674;7.868;2022-12-07T12:42:51;6.90;1.00
9925;DHT22;5001;51.674;7.868;2022-12-07T12:48:26;6.70;1.00
9925;DHT22;5001;51.674;7.868;2022-12-07T12:54:12;6.60;1.00
9925;DHT22;5001;51.674;7.868;2022-12-07T13:01:53;6.50;1.00
9925;DHT22;5001;51.674;7.868;2022-12-07T13:04:25;6.30;1.00
9925;DHT22;5001;51.674;7.868;2022-12-07T13:06:54;6.20;1.00
9925;DHT22;5001;51.674;7.868;2022-12-07T13:09:28;6.20;1.00
9925;DHT22;5001;51.674;7.868;2022-12-07T13:12:02;6.40;1.00
9925;DHT22;5001;51.674;7.868;2022-12-07T13:14:41;6.60;1.00
9925;DHT22;5001;51.674;7.868;2022-12-07T13:20:04;6.80;1.00
9925;DHT22;5001;51.674;7.868;2022-12-07T13:28:03;6.60;1.00
9925;DHT22;5001;51.674;7.868;2022-12-07T13:30:47;6.50;1.00
9925;DHT22;5001;51.674;7.868;2022-12-07T13:33:17;6.50;1.00
9925;DHT22;5001;51.674;7.868;2022-12-07T13:35:45;6.40;1.00
9925;DHT22;5001;51.674;7.868;2022-12-07T13:38:25;6.40;1.00
9925;DHT22;5001;51.674;7.868;2022-12-07T13:41:01;6.40;1.00
9925;DHT22;5001;51.674;7.868;2022-12-07T13:43:29;6.40;1.00
9925;DHT22;5001;51.674;7.868;2022-12-07T13:45:58;6.20;1.00
9925;DHT22;5001;51.674;7.868;2022-12-07T13:48:33;6.20;1.00
9925;DHT22;5001;51.674;7.868;2022-12-07T13:51:03;6.10;1.00
9925;DHT22;5001;51.674;7.868;2022-12-07T13:53:30;6.00;1.00
9925;DHT22;5001;51.674;7.868;2022-12-07T13:55:58;6.10;1.00
9925;DHT22;5001;51.674;7.868;2022-12-07T13:58:30;5.90;1.00
9925;DHT22;5001;51.674;7.868;2022-12-07T14:00:58;5.80;1.00
9925;DHT22;5001;51.674;7.868;2022-12-07T14:03:31;5.80;1.00
9925;DHT22;5001;51.674;7.868;2022-12-07T14:06:22;5.80;1.00
9925;DHT22;5001;51.674;7.868;2022-12-07T14:09:16;5.70;1.00
9925;DHT22;5001;51.674;7.868;2022-12-07T14:11:46;5.70;1.00
9925;DHT22;5001;51.674;7.868;2022-12-07T14:14:21;5.80;1.00
9925;DHT22;5001;51.674;7.868;2022-12-07T14:17:15;5.80;1.00
9925;DHT22;5001;51.674;7.868;2022-12-07T14:19:43;5.80;1.00
9925;DHT22;5001;51.674;7.868;2022-12-07T14:22:40;5.70;1.00
9925;DHT22;5001;51.674;7.868;2022-12-07T14:25:16;5.50;1.00
9925;DHT22;5001;51.674;7.868;2022-12-07T14:27:52;5.40;1.00
9925;DHT22;5001;51.674;7.868;2022-12-07T14:30:24;5.30;1.00
9925;DHT22;5001;51.674;7.868;2022-12-07T14:32:56;5.20;1.00
9925;DHT22;5001;51.674;7.868;2022-12-07T14:35:24;5.20;1.00
9925;DHT22;5001;51.674;7.868;2022-12-07T14:37:51;5.10;1.00
9925;DHT22;5001;51.674;7.868;2022-12-07T14:40:23;5.10;1.00
9925;DHT22;5001;51.674;7.868;2022-12-07T14:42:54;5.00;1.00
9925;DHT22;5001;51.674;7.868;2022-12-07T14:45:23;5.00;1.00
9925;DHT22;5001;51.674;7.868;2022-12-07T14:47:50;4.90;1.00
9925;DHT22;5001;51.674;7.868;2022-12-07T14:50:40;4.90;1.00
9925;DHT22;5001;51.674;7.868;2022-12-07T14:53:33;4.80;1.00
9925;DHT22;5001;51.674;7.868;2022-12-07T14:56:01;4.70;1.00
9925;DHT22;5001;51.674;7.868;2022-12-07T14:58:29;4.60;1.00
9925;DHT22;5001;51.674;7.868;2022-12-07T15:00:56;4.60;1.00
9925;DHT22;5001;51.674;7.868;2022-12-07T15:03:23;4.60;1.00
9925;DHT22;5001;51.674;7.868;2022-12-07T15:05:50;4.60;1.00
9925;DHT22;5001;51.674;7.868;2022-12-07T15:08:17;4.60;1.00
9925;DHT22;5001;51.674;7.868;2022-12-07T15:10:44;4.60;1.00
9925;DHT22;5001;51.674;7.868;2022-12-07T15:13:13;4.60;1.00
9925;DHT22;5001;51.674;7.868;2022-12-07T15:15:59;4.70;1.00
9925;DHT22;5001;51.674;7.868;2022-12-07T15:18:27;4.70;1.00
9925;DHT22;5001;51.674;7.868;2022-12-07T15:20:54;4.60;1.00
9925;DHT22;5001;51.674;7.868;2022-12-07T15:23:21;4.50;1.00
9925;DHT22;5001;51.674;7.868;2022-12-07T15:25:48;4.50;1.00
9925;DHT22;5001;51.674;7.868;2022-12-07T15:28:18;4.50;1.00
9925;DHT22;5001;51.674;7.868;2022-12-07T15:30:46;4.40;1.00
9925;DHT22;5001;51.674;7.868;2022-12-07T15:33:13;4.40;1.00
9925;DHT22;5001;51.674;7.868;2022-12-07T15:35:42;4.20;1.00
9925;DHT22;5001;51.674;7.868;2022-12-07T15:38:10;4.20;1.00
9925;DHT22;5001;51.674;7.868;2022-12-07T15:40:38;4.10;1.00
9925;DHT22;5001;51.674;7.868;2022-12-07T15:43:05;4.10;1.00
9925;DHT22;5001;51.674;7.868;2022-12-07T15:45:53;4.00;1.00
9925;DHT22;5001;51.674;7.868;2022-12-07T15:48:20;4.00;1.00
9925;DHT22;5001;51.674;7.868;2022-12-07T15:51:06;4.00;1.00
9925;DHT22;5001;51.674;7.868;2022-12-07T15:53:34;4.00;1.00
9925;DHT22;5001;51.674;7.868;2022-12-07T15:56:05;3.90;1.00
9925;DHT22;5001;51.674;7.868;2022-12-07T15:58:32;4.00;1.00
9925;DHT22;5001;51.674;7.868;2022-12-07T16:00:59;4.00;1.00
9925;DHT22;5001;51.674;7.868;2022-12-07T16:03:29;4.00;1.00
9925;DHT22;5001;51.674;7.868;2022-12-07T16:05:56;4.00;1.00
9925;DHT22;5001;51.674;7.868;2022-12-07T16:08:23;4.00;1.00
9925;DHT22;5001;51.674;7.868;2022-12-07T16:10:50;3.90;1.00
9925;DHT22;5001;51.674;7.868;2022-12-07T16:13:17;3.90;1.00
9925;DHT22;5001;51.674;7.868;2022-12-07T16:15:46;3.90;1.00
9925;DHT22;5001;51.674;7.868;2022-12-07T16:18:13;3.90;1.00
9925;DHT22;5001;51.674;7.868;2022-12-07T16:20:40;3.90;1.00
9925;DHT22;5001;51.674;7.868;2022-12-07T16:23:10;3.90;1.00
9925;DHT22;5001;51.674;7.868;2022-12-07T16:25:37;3.90;1.00
9925;DHT22;5001;51.674;7.868;2022-12-07T16:28:04;3.80;1.00
9925;DHT22;5001;51.674;7.868;2022-12-07T16:30:31;3.80;1.00
9925;DHT22;5001;51.674;7.868;2022-12-07T16:32:58;3.80;1.00
9925;DHT22;5001;51.674;7.868;2022-12-07T16:35:28;3.80;1.00
9925;DHT22;5001;51.674;7.868;2022-12-07T16:37:55;3.80;1.00
9925;DHT22;5001;51.674;7.868;2022-12-07T16:40:22;3.80;1.00
9925;DHT22;5001;51.674;7.868;2022-12-07T16:42:52;3.80;1.00
9925;DHT22;5001;51.674;7.868;2022-12-07T16:45:19;3.80;1.00
9925;DHT22;5001;51.674;7.868;2022-12-07T16:47:47;3.80;1.00
9925;DHT22;5001;51.674;7.868;2022-12-07T16:50:14;3.80;1.00
9925;DHT22;5001;51.674;7.868;2022-12-07T16:52:41;3.80;1.00
9925;DHT22;5001;51.674;7.868;2022-12-07T16:55:08;3.80;1.00
9925;DHT22;5001;51.674;7.868;2022-12-07T16:57:35;3.90;1.00
9925;DHT22;5001;51.674;7.868;2022-12-07T17:00:03;3.90;1.00
9925;DHT22;5001;51.674;7.868;2022-12-07T17:02:30;3.90;1.00
9925;DHT22;5001;51.674;7.868;2022-12-07T17:04:57;4.00;1.00
9925;DHT22;5001;51.674;7.868;2022-12-07T17:07:24;3.90;1.00
9925;DHT22;5001;51.674;7.868;2022-12-07T17:09:52;4.00;1.00
9925;DHT22;5001;51.674;7.868;2022-12-07T17:12:20;4.00;1.00
9925;DHT22;5001;51.674;7.868;2022-12-07T17:14:47;4.00;1.00
9925;DHT22;5001;51.674;7.868;2022-12-07T17:17:34;4.10;1.00
9925;DHT22;5001;51.674;7.868;2022-12-07T17:20:01;4.10;1.00
9925;DHT22;5001;51.674;7.868;2022-12-07T17:22:31;4.10;1.00
9925;DHT22;5001;51.674;7.868;2022-12-07T17:24:58;4.20;1.00
9925;DHT22;5001;51.674;7.868;2022-12-07T17:27:25;4.10;1.00
9925;DHT22;5001;51.674;7.868;2022-12-07T17:29:52;4.20;1.00
9925;DHT22;5001;51.674;7.868;2022-12-07T17:32:24;4.20;1.00
9925;DHT22;5001;51.674;7.868;2022-12-07T17:34:51;4.20;1.00
9925;DHT22;5001;51.674;7.868;2022-12-07T17:37:18;4.20;1.00
9925;DHT22;5001;51.674;7.868;2022-12-07T17:39:46;4.20;1.00
9925;DHT22;5001;51.674;7.868;2022-12-07T17:42:14;4.30;1.00
9925;DHT22;5001;51.674;7.868;2022-12-07T17:45:08;4.20;1.00
9925;DHT22;5001;51.674;7.868;2022-12-07T17:47:37;4.30;1.00
9925;DHT22;5001;51.674;7.868;2022-12-07T17:50:06;4.20;1.00
9925;DHT22;5001;51.674;7.868;2022-12-07T17:52:37;4.20;1.00
9925;DHT22;5001;51.674;7.868;2022-12-07T17:55:26;4.30;1.00
9925;DHT22;5001;51.674;7.868;2022-12-07T17:57:53;4.30;1.00
9925;DHT22;5001;51.674;7.868;2022-12-07T18:00:23;4.30;1.00
9925;DHT22;5001;51.674;7.868;2022-12-07T18:02:50;4.30;1.00
9925;DHT22;5001;51.674;7.868;2022-12-07T18:05:17;4.20;1.00
9925;DHT22;5001;51.674;7.868;2022-12-07T18:07:44;4.20;1.00
9925;DHT22;5001;51.674;7.868;2022-12-07T18:10:11;4.20;1.00
9925;DHT22;5001;51.674;7.868;2022-12-07T18:12:38;4.20;1.00
9925;DHT22;5001;51.674;7.868;2022-12-07T18:15:06;4.20;1.00
9925;DHT22;5001;51.674;7.868;2022-12-07T18:17:33;4.20;1.00
9925;DHT22;5001;51.674;7.868;2022-12-07T18:20:04;4.10;1.00
9925;DHT22;5001;51.674;7.868;2022-12-07T18:22:33;4.20;1.00
9925;DHT22;5001;51.674;7.868;2022-12-07T18:25:00;4.20;1.00
9925;DHT22;5001;51.674;7.868;2022-12-07T18:27:27;4.20;1.00
9925;DHT22;5001;51.674;7.868;2022-12-07T18:29:54;4.20;1.00
9925;DHT22;5001;51.674;7.868;2022-12-07T18:32:21;4.20;1.00
9925;DHT22;5001;51.674;7.868;2022-12-07T18:34:48;4.20;1.00
9925;DHT22;5001;51.674;7.868;2022-12-07T18:37:15;4.20;1.00
9925;DHT22;5001;51.674;7.868;2022-12-07T18:39:45;4.20;1.00
9925;DHT22;5001;51.674;7.868;2022-12-07T18:42:12;4.10;1.00
9925;DHT22;5001;51.674;7.868;2022-12-07T18:44:39;4.10;1.00
9925;DHT22;5001;51.674;7.868;2022-12-07T18:47:06;4.10;1.00
9925;DHT22;5001;51.674;7.868;2022-12-07T18:49:36;4.10;1.00
9925;DHT22;5001;51.674;7.868;2022-12-07T18:52:04;4.10;1.00
9925;DHT22;5001;51.674;7.868;2022-12-07T18:54:31;4.00;1.00
9925;DHT22;5001;51.674;7.868;2022-12-07T18:56:58;4.00;1.00
9925;DHT22;5001;51.674;7.868;2022-12-07T18:59:25;4.00;1.00
9925;DHT22;5001;51.674;7.868;2022-12-07T19:02:11;4.00;1.00
9925;DHT22;5001;51.674;7.868;2022-12-07T19:04:39;4.00;1.00
9925;DHT22;5001;51.674;7.868;2022-12-07T19:07:06;4.00;1.00
9925;DHT22;5001;51.674;7.868;2022-12-07T19:09:33;3.90;1.00
9925;DHT22;5001;51.674;7.868;2022-12-07T19:12:00;3.90;1.00
9925;DHT22;5001;51.674;7.868;2022-12-07T19:14:34;4.00;1.00
9925;DHT22;5001;51.674;7.868;2022-12-07T19:17:07;4.00;1.00